sensor_id;sensor_type;location;lat;lon;timestamp;P1;durP1;ratioP1;P2;durP2;ratioP2
56718;SDS011;42597;40.636;0.278;2023-07-16T00:02:03;10.02;;;3.67;;
56718;SDS011;42597;40.636;0.278;2023-07-16T00:04:29;12.10;;;3.05;;
56718;SDS011;42597;40.636;0.278;2023-07-16T00:06:56;14.25;;;4.78;;
56718;SDS011;42597;40.636;0.278;2023-07-16T00:09:21;9.18;;;3.35;;
56718;SDS011;42597;40.636;0.278;2023-07-16T00:11:47;10.27;;;4.20;;
56718;SDS011;42597;40.636;0.278;2023-07-16T00:14:12;4.60;;;2.78;;
56718;SDS011;42597;40.636;0.278;2023-07-16T00:16:38;13.82;;;4.07;;
56718;SDS011;42597;40.636;0.278;2023-07-16T00:19:03;5.55;;;3.05;;
56718;SDS011;42597;40.636;0.278;2023-07-16T00:21:30;4.32;;;2.20;;
56718;SDS011;42597;40.636;0.278;2023-07-16T00:23:55;6.03;;;2.60;;
56718;SDS011;42597;40.636;0.278;2023-07-16T00:26:21;4.43;;;2.25;;
56718;SDS011;42597;40.636;0.278;2023-07-16T00:28:46;5.82;;;2.13;;
56718;SDS011;42597;40.636;0.278;2023-07-16T00:31:12;3.40;;;1.60;;
56718;SDS011;42597;40.636;0.278;2023-07-16T00:33:38;11.35;;;1.90;;
56718;SDS011;42597;40.636;0.278;2023-07-16T00:36:03;5.53;;;2.10;;
56718;SDS011;42597;40.636;0.278;2023-07-16T00:38:29;3.40;;;1.90;;
56718;SDS011;42597;40.636;0.278;2023-07-16T00:40:55;12.52;;;4.20;;
56718;SDS011;42597;40.636;0.278;2023-07-16T00:43:21;7.43;;;4.63;;
56718;SDS011;42597;40.636;0.278;2023-07-16T00:45:47;13.70;;;8.68;;
56718;SDS011;42597;40.636;0.278;2023-07-16T00:48:12;15.00;;;7.97;;
56718;SDS011;42597;40.636;0.278;2023-07-16T00:50:38;11.00;;;7.00;;
56718;SDS011;42597;40.636;0.278;2023-07-16T00:53:08;14.57;;;8.65;;
56718;SDS011;42597;40.636;0.278;2023-07-16T00:55:35;15.50;;;11.40;;
56718;SDS011;42597;40.636;0.278;2023-07-16T00:58:02;15.00;;;8.73;;
56718;SDS011;42597;40.636;0.278;2023-07-16T01:00:31;15.30;;;8.00;;
56718;SDS011;42597;40.636;0.278;2023-07-16T01:02:57;12.57;;;8.25;;
56718;SDS011;42597;40.636;0.278;2023-07-16T01:05:23;16.08;;;7.55;;
56718;SDS011;42597;40.636;0.278;2023-07-16T01:07:55;8.05;;;5.95;;
56718;SDS011;42597;40.636;0.278;2023-07-16T01:10:25;13.85;;;5.95;;
56718;SDS011;42597;40.636;0.278;2023-07-16T01:12:55;9.82;;;7.00;;
56718;SDS011;42597;40.636;0.278;2023-07-16T01:15:22;13.63;;;6.85;;
56718;SDS011;42597;40.636;0.278;2023-07-16T01:17:48;9.45;;;6.03;;
56718;SDS011;42597;40.636;0.278;2023-07-16T01:20:14;9.45;;;5.60;;
56718;SDS011;42597;40.636;0.278;2023-07-16T01:30:15;9.95;;;5.13;;
56718;SDS011;42597;40.636;0.278;2023-07-16T01:32:44;10.82;;;4.35;;
56718;SDS011;42597;40.636;0.278;2023-07-16T01:35:11;9.88;;;3.90;;
56718;SDS011;42597;40.636;0.278;2023-07-16T01:37:38;4.68;;;2.85;;
56718;SDS011;42597;40.636;0.278;2023-07-16T01:40:06;7.60;;;2.97;;
56718;SDS011;42597;40.636;0.278;2023-07-16T01:42:34;5.38;;;2.72;;
56718;SDS011;42597;40.636;0.278;2023-07-16T01:45:00;6.50;;;3.03;;
56718;SDS011;42597;40.636;0.278;2023-07-16T01:49:53;6.30;;;3.65;;
56718;SDS011;42597;40.636;0.278;2023-07-16T01:52:19;8.43;;;3.70;;
56718;SDS011;42597;40.636;0.278;2023-07-16T01:54:45;10.10;;;4.05;;
56718;SDS011;42597;40.636;0.278;2023-07-16T01:57:10;11.38;;;3.80;;
56718;SDS011;42597;40.636;0.278;2023-07-16T01:59:36;6.00;;;3.53;;
56718;SDS011;42597;40.636;0.278;2023-07-16T02:02:01;8.90;;;4.03;;
56718;SDS011;42597;40.636;0.278;2023-07-16T02:04:27;8.48;;;4.18;;
56718;SDS011;42597;40.636;0.278;2023-07-16T02:06:53;7.18;;;3.63;;
56718;SDS011;42597;40.636;0.278;2023-07-16T02:09:18;9.88;;;3.42;;
56718;SDS011;42597;40.636;0.278;2023-07-16T02:11:44;5.43;;;2.17;;
56718;SDS011;42597;40.636;0.278;2023-07-16T02:14:09;6.10;;;2.58;;
56718;SDS011;42597;40.636;0.278;2023-07-16T02:16:35;4.13;;;2.47;;
56718;SDS011;42597;40.636;0.278;2023-07-16T02:19:00;3.40;;;1.70;;
56718;SDS011;42597;40.636;0.278;2023-07-16T02:21:26;4.88;;;2.30;;
56718;SDS011;42597;40.636;0.278;2023-07-16T02:23:51;4.63;;;2.38;;
56718;SDS011;42597;40.636;0.278;2023-07-16T02:26:17;4.22;;;2.50;;
56718;SDS011;42597;40.636;0.278;2023-07-16T02:28:43;5.30;;;1.88;;
56718;SDS011;42597;40.636;0.278;2023-07-16T02:31:08;3.85;;;1.73;;
56718;SDS011;42597;40.636;0.278;2023-07-16T02:33:34;7.55;;;2.50;;
56718;SDS011;42597;40.636;0.278;2023-07-16T02:35:59;3.80;;;1.73;;
56718;SDS011;42597;40.636;0.278;2023-07-16T02:38:25;5.97;;;2.55;;
56718;SDS011;42597;40.636;0.278;2023-07-16T02:40:51;5.13;;;1.92;;
56718;SDS011;42597;40.636;0.278;2023-07-16T02:43:16;5.32;;;2.15;;
56718;SDS011;42597;40.636;0.278;2023-07-16T02:45:42;5.88;;;2.25;;
56718;SDS011;42597;40.636;0.278;2023-07-16T02:48:07;3.42;;;1.95;;
56718;SDS011;42597;40.636;0.278;2023-07-16T02:50:33;8.13;;;2.65;;
56718;SDS011;42597;40.636;0.278;2023-07-16T02:53:00;6.05;;;2.95;;
56718;SDS011;42597;40.636;0.278;2023-07-16T02:55:26;3.13;;;1.63;;
56718;SDS011;42597;40.636;0.278;2023-07-16T02:57:52;3.78;;;1.77;;
56718;SDS011;42597;40.636;0.278;2023-07-16T03:00:17;6.60;;;1.92;;
56718;SDS011;42597;40.636;0.278;2023-07-16T03:02:43;7.30;;;2.55;;
56718;SDS011;42597;40.636;0.278;2023-07-16T03:05:09;5.13;;;1.90;;
56718;SDS011;42597;40.636;0.278;2023-07-16T03:07:34;3.72;;;1.92;;
56718;SDS011;42597;40.636;0.278;2023-07-16T03:10:00;2.38;;;1.45;;
56718;SDS011;42597;40.636;0.278;2023-07-16T03:12:25;4.75;;;1.85;;
56718;SDS011;42597;40.636;0.278;2023-07-16T03:14:51;6.00;;;1.60;;
56718;SDS011;42597;40.636;0.278;2023-07-16T03:17:19;3.78;;;1.70;;
56718;SDS011;42597;40.636;0.278;2023-07-16T03:19:46;5.13;;;2.15;;
56718;SDS011;42597;40.636;0.278;2023-07-16T03:22:11;6.10;;;1.83;;
56718;SDS011;42597;40.636;0.278;2023-07-16T03:24:37;2.75;;;1.60;;
56718;SDS011;42597;40.636;0.278;2023-07-16T03:27:02;4.28;;;2.00;;
56718;SDS011;42597;40.636;0.278;2023-07-16T03:29:28;2.65;;;1.48;;
56718;SDS011;42597;40.636;0.278;2023-07-16T03:31:54;3.67;;;1.63;;
56718;SDS011;42597;40.636;0.278;2023-07-16T03:34:19;4.25;;;2.55;;
56718;SDS011;42597;40.636;0.278;2023-07-16T03:36:45;4.43;;;2.05;;
56718;SDS011;42597;40.636;0.278;2023-07-16T03:39:11;5.32;;;2.20;;
56718;SDS011;42597;40.636;0.278;2023-07-16T03:41:36;3.63;;;1.95;;
56718;SDS011;42597;40.636;0.278;2023-07-16T03:44:02;10.30;;;3.72;;
56718;SDS011;42597;40.636;0.278;2023-07-16T03:46:27;3.95;;;1.88;;
56718;SDS011;42597;40.636;0.278;2023-07-16T03:48:53;2.22;;;1.15;;
56718;SDS011;42597;40.636;0.278;2023-07-16T03:51:19;3.45;;;1.30;;
56718;SDS011;42597;40.636;0.278;2023-07-16T03:53:44;4.15;;;1.52;;
56718;SDS011;42597;40.636;0.278;2023-07-16T03:56:10;4.05;;;2.10;;
56718;SDS011;42597;40.636;0.278;2023-07-16T03:58:36;7.38;;;2.05;;
56718;SDS011;42597;40.636;0.278;2023-07-16T04:01:01;5.75;;;1.90;;
56718;SDS011;42597;40.636;0.278;2023-07-16T04:03:26;3.33;;;1.95;;
56718;SDS011;42597;40.636;0.278;2023-07-16T04:06:00;3.08;;;1.77;;
56718;SDS011;42597;40.636;0.278;2023-07-16T04:08:36;4.20;;;1.73;;
56718;SDS011;42597;40.636;0.278;2023-07-16T04:11:05;4.10;;;1.95;;
56718;SDS011;42597;40.636;0.278;2023-07-16T04:13:31;3.30;;;2.08;;
56718;SDS011;42597;40.636;0.278;2023-07-16T04:15:57;3.28;;;1.85;;
56718;SDS011;42597;40.636;0.278;2023-07-16T04:18:23;4.55;;;1.95;;
56718;SDS011;42597;40.636;0.278;2023-07-16T04:20:49;4.20;;;2.30;;
56718;SDS011;42597;40.636;0.278;2023-07-16T04:23:15;2.97;;;1.35;;
56718;SDS011;42597;40.636;0.278;2023-07-16T04:25:41;2.65;;;1.70;;
56718;SDS011;42597;40.636;0.278;2023-07-16T04:28:06;3.70;;;1.42;;
56718;SDS011;42597;40.636;0.278;2023-07-16T04:30:32;4.03;;;2.45;;
56718;SDS011;42597;40.636;0.278;2023-07-16T04:32:57;6.95;;;1.58;;
56718;SDS011;42597;40.636;0.278;2023-07-16T04:35:23;4.28;;;2.00;;
56718;SDS011;42597;40.636;0.278;2023-07-16T04:37:49;6.55;;;2.17;;
56718;SDS011;42597;40.636;0.278;2023-07-16T04:40:14;5.47;;;1.83;;
56718;SDS011;42597;40.636;0.278;2023-07-16T04:42:40;3.17;;;1.65;;
56718;SDS011;42597;40.636;0.278;2023-07-16T04:45:05;4.03;;;1.90;;
56718;SDS011;42597;40.636;0.278;2023-07-16T04:47:31;4.07;;;2.22;;
56718;SDS011;42597;40.636;0.278;2023-07-16T04:50:00;6.55;;;2.30;;
56718;SDS011;42597;40.636;0.278;2023-07-16T04:54:51;5.82;;;1.98;;
56718;SDS011;42597;40.636;0.278;2023-07-16T04:57:16;5.22;;;2.42;;
56718;SDS011;42597;40.636;0.278;2023-07-16T04:59:42;4.80;;;2.50;;
56718;SDS011;42597;40.636;0.278;2023-07-16T05:02:08;5.93;;;2.40;;
56718;SDS011;42597;40.636;0.278;2023-07-16T05:04:34;5.22;;;2.20;;
56718;SDS011;42597;40.636;0.278;2023-07-16T05:07:00;4.57;;;2.20;;
56718;SDS011;42597;40.636;0.278;2023-07-16T05:09:29;4.00;;;2.10;;
56718;SDS011;42597;40.636;0.278;2023-07-16T05:11:55;3.25;;;1.63;;
56718;SDS011;42597;40.636;0.278;2023-07-16T05:14:21;4.65;;;2.35;;
56718;SDS011;42597;40.636;0.278;2023-07-16T05:16:46;5.38;;;2.17;;
56718;SDS011;42597;40.636;0.278;2023-07-16T05:19:12;3.53;;;1.83;;
56718;SDS011;42597;40.636;0.278;2023-07-16T05:21:37;5.25;;;2.28;;
56718;SDS011;42597;40.636;0.278;2023-07-16T05:24:04;6.10;;;2.55;;
56718;SDS011;42597;40.636;0.278;2023-07-16T05:26:30;7.18;;;2.28;;
56718;SDS011;42597;40.636;0.278;2023-07-16T05:28:55;5.35;;;1.98;;
56718;SDS011;42597;40.636;0.278;2023-07-16T05:31:21;3.97;;;2.28;;
56718;SDS011;42597;40.636;0.278;2023-07-16T05:33:46;5.82;;;2.42;;
56718;SDS011;42597;40.636;0.278;2023-07-16T05:36:12;3.63;;;1.83;;
56718;SDS011;42597;40.636;0.278;2023-07-16T05:38:38;5.63;;;2.45;;
56718;SDS011;42597;40.636;0.278;2023-07-16T05:41:03;5.60;;;2.20;;
56718;SDS011;42597;40.636;0.278;2023-07-16T05:43:30;5.95;;;1.92;;
56718;SDS011;42597;40.636;0.278;2023-07-16T05:45:56;3.80;;;2.17;;
56718;SDS011;42597;40.636;0.278;2023-07-16T05:48:21;6.18;;;2.22;;
56718;SDS011;42597;40.636;0.278;2023-07-16T05:50:47;5.03;;;2.33;;
56718;SDS011;42597;40.636;0.278;2023-07-16T05:53:12;3.65;;;1.90;;
56718;SDS011;42597;40.636;0.278;2023-07-16T05:55:41;4.25;;;2.17;;
56718;SDS011;42597;40.636;0.278;2023-07-16T05:58:07;7.05;;;2.25;;
56718;SDS011;42597;40.636;0.278;2023-07-16T06:00:32;4.63;;;1.70;;
56718;SDS011;42597;40.636;0.278;2023-07-16T06:02:58;4.72;;;2.03;;
56718;SDS011;42597;40.636;0.278;2023-07-16T06:05:23;4.10;;;2.75;;
56718;SDS011;42597;40.636;0.278;2023-07-16T06:07:52;5.05;;;2.20;;
56718;SDS011;42597;40.636;0.278;2023-07-16T06:10:17;6.65;;;2.15;;
56718;SDS011;42597;40.636;0.278;2023-07-16T06:12:43;4.72;;;1.85;;
56718;SDS011;42597;40.636;0.278;2023-07-16T06:15:09;4.72;;;2.33;;
56718;SDS011;42597;40.636;0.278;2023-07-16T06:17:34;5.22;;;2.58;;
56718;SDS011;42597;40.636;0.278;2023-07-16T06:20:01;3.08;;;1.70;;
56718;SDS011;42597;40.636;0.278;2023-07-16T06:22:27;3.25;;;2.00;;
56718;SDS011;42597;40.636;0.278;2023-07-16T06:24:53;3.53;;;2.17;;
56718;SDS011;42597;40.636;0.278;2023-07-16T06:27:18;4.20;;;2.45;;
56718;SDS011;42597;40.636;0.278;2023-07-16T06:29:44;3.90;;;2.05;;
56718;SDS011;42597;40.636;0.278;2023-07-16T06:32:10;4.57;;;2.17;;
56718;SDS011;42597;40.636;0.278;2023-07-16T06:34:35;6.40;;;3.03;;
56718;SDS011;42597;40.636;0.278;2023-07-16T06:37:01;4.13;;;2.65;;
56718;SDS011;42597;40.636;0.278;2023-07-16T06:39:27;4.30;;;1.92;;
56718;SDS011;42597;40.636;0.278;2023-07-16T06:41:52;5.97;;;2.30;;
56718;SDS011;42597;40.636;0.278;2023-07-16T06:44:18;4.25;;;2.22;;
56718;SDS011;42597;40.636;0.278;2023-07-16T06:46:44;6.15;;;2.15;;
56718;SDS011;42597;40.636;0.278;2023-07-16T06:49:09;5.90;;;2.47;;
56718;SDS011;42597;40.636;0.278;2023-07-16T06:51:35;6.35;;;2.60;;
56718;SDS011;42597;40.636;0.278;2023-07-16T06:54:00;4.63;;;2.05;;
56718;SDS011;42597;40.636;0.278;2023-07-16T06:56:26;5.18;;;2.30;;
56718;SDS011;42597;40.636;0.278;2023-07-16T06:58:51;5.03;;;1.90;;
56718;SDS011;42597;40.636;0.278;2023-07-16T07:01:17;5.03;;;2.05;;
56718;SDS011;42597;40.636;0.278;2023-07-16T07:03:42;4.63;;;2.40;;
56718;SDS011;42597;40.636;0.278;2023-07-16T07:06:08;3.78;;;2.03;;
56718;SDS011;42597;40.636;0.278;2023-07-16T07:08:36;6.10;;;2.88;;
56718;SDS011;42597;40.636;0.278;2023-07-16T07:11:01;6.57;;;3.55;;
56718;SDS011;42597;40.636;0.278;2023-07-16T07:13:27;6.47;;;2.90;;
56718;SDS011;42597;40.636;0.278;2023-07-16T07:15:54;5.47;;;2.22;;
56718;SDS011;42597;40.636;0.278;2023-07-16T07:18:20;5.68;;;3.45;;
56718;SDS011;42597;40.636;0.278;2023-07-16T07:20:46;14.68;;;3.28;;
56718;SDS011;42597;40.636;0.278;2023-07-16T07:23:12;8.27;;;4.15;;
56718;SDS011;42597;40.636;0.278;2023-07-16T07:25:38;10.95;;;8.32;;
56718;SDS011;42597;40.636;0.278;2023-07-16T07:28:04;7.13;;;3.88;;
56718;SDS011;42597;40.636;0.278;2023-07-16T07:30:29;7.18;;;4.85;;
56718;SDS011;42597;40.636;0.278;2023-07-16T07:32:55;5.88;;;2.50;;
56718;SDS011;42597;40.636;0.278;2023-07-16T07:35:20;5.22;;;2.75;;
56718;SDS011;42597;40.636;0.278;2023-07-16T07:37:46;8.75;;;3.45;;
56718;SDS011;42597;40.636;0.278;2023-07-16T07:40:11;8.38;;;3.25;;
56718;SDS011;42597;40.636;0.278;2023-07-16T07:42:37;4.90;;;2.78;;
56718;SDS011;42597;40.636;0.278;2023-07-16T07:45:03;10.52;;;2.53;;
56718;SDS011;42597;40.636;0.278;2023-07-16T07:47:29;6.60;;;2.85;;
56718;SDS011;42597;40.636;0.278;2023-07-16T07:49:54;6.00;;;2.40;;
56718;SDS011;42597;40.636;0.278;2023-07-16T07:52:20;5.78;;;2.63;;
56718;SDS011;42597;40.636;0.278;2023-07-16T07:54:45;8.65;;;2.85;;
56718;SDS011;42597;40.636;0.278;2023-07-16T07:57:11;10.40;;;2.85;;
56718;SDS011;42597;40.636;0.278;2023-07-16T07:59:38;5.97;;;2.72;;
56718;SDS011;42597;40.636;0.278;2023-07-16T08:02:03;9.32;;;2.40;;
56718;SDS011;42597;40.636;0.278;2023-07-16T08:04:29;5.22;;;2.58;;
56718;SDS011;42597;40.636;0.278;2023-07-16T08:06:57;3.28;;;1.98;;
56718;SDS011;42597;40.636;0.278;2023-07-16T08:09:22;3.45;;;1.92;;
56718;SDS011;42597;40.636;0.278;2023-07-16T08:11:48;4.40;;;2.20;;
56718;SDS011;42597;40.636;0.278;2023-07-16T08:14:14;21.60;;;2.83;;
56718;SDS011;42597;40.636;0.278;2023-07-16T08:16:39;5.60;;;2.35;;
56718;SDS011;42597;40.636;0.278;2023-07-16T08:19:05;7.82;;;2.67;;
56718;SDS011;42597;40.636;0.278;2023-07-16T08:21:31;10.05;;;2.92;;
56718;SDS011;42597;40.636;0.278;2023-07-16T08:23:57;5.90;;;2.63;;
56718;SDS011;42597;40.636;0.278;2023-07-16T08:26:23;7.32;;;2.70;;
56718;SDS011;42597;40.636;0.278;2023-07-16T08:28:48;6.78;;;2.42;;
56718;SDS011;42597;40.636;0.278;2023-07-16T08:31:14;8.25;;;2.03;;
56718;SDS011;42597;40.636;0.278;2023-07-16T08:33:40;7.88;;;2.42;;
56718;SDS011;42597;40.636;0.278;2023-07-16T08:36:05;4.63;;;2.40;;
56718;SDS011;42597;40.636;0.278;2023-07-16T08:38:31;6.32;;;2.35;;
56718;SDS011;42597;40.636;0.278;2023-07-16T08:40:56;7.22;;;3.40;;
56718;SDS011;42597;40.636;0.278;2023-07-16T08:43:22;5.85;;;2.30;;
56718;SDS011;42597;40.636;0.278;2023-07-16T08:45:48;5.72;;;2.75;;
56718;SDS011;42597;40.636;0.278;2023-07-16T08:48:15;6.50;;;3.38;;
56718;SDS011;42597;40.636;0.278;2023-07-16T08:50:45;7.90;;;3.25;;
56718;SDS011;42597;40.636;0.278;2023-07-16T08:53:13;8.32;;;2.58;;
56718;SDS011;42597;40.636;0.278;2023-07-16T08:55:40;6.70;;;3.25;;
56718;SDS011;42597;40.636;0.278;2023-07-16T08:58:06;6.45;;;2.80;;
56718;SDS011;42597;40.636;0.278;2023-07-16T09:00:32;7.88;;;3.10;;
56718;SDS011;42597;40.636;0.278;2023-07-16T09:02:58;8.27;;;2.85;;
56718;SDS011;42597;40.636;0.278;2023-07-16T09:05:24;6.57;;;2.53;;
56718;SDS011;42597;40.636;0.278;2023-07-16T09:07:50;8.43;;;3.20;;
56718;SDS011;42597;40.636;0.278;2023-07-16T09:10:15;8.90;;;3.25;;
56718;SDS011;42597;40.636;0.278;2023-07-16T09:12:42;11.50;;;3.60;;
56718;SDS011;42597;40.636;0.278;2023-07-16T09:15:08;8.63;;;3.40;;
56718;SDS011;42597;40.636;0.278;2023-07-16T09:17:35;9.80;;;3.63;;
56718;SDS011;42597;40.636;0.278;2023-07-16T09:20:03;7.85;;;2.92;;
56718;SDS011;42597;40.636;0.278;2023-07-16T09:22:30;7.05;;;3.85;;
56718;SDS011;42597;40.636;0.278;2023-07-16T09:24:56;11.50;;;3.70;;
56718;SDS011;42597;40.636;0.278;2023-07-16T09:27:31;9.23;;;3.35;;
56718;SDS011;42597;40.636;0.278;2023-07-16T09:29:57;7.38;;;3.33;;
56718;SDS011;42597;40.636;0.278;2023-07-16T09:32:34;9.98;;;3.50;;
56718;SDS011;42597;40.636;0.278;2023-07-16T09:35:00;9.05;;;3.55;;
56718;SDS011;42597;40.636;0.278;2023-07-16T09:37:31;16.40;;;4.22;;
56718;SDS011;42597;40.636;0.278;2023-07-16T09:39:56;7.53;;;2.67;;
56718;SDS011;42597;40.636;0.278;2023-07-16T09:42:22;7.15;;;2.78;;
56718;SDS011;42597;40.636;0.278;2023-07-16T09:44:49;26.38;;;3.42;;
56718;SDS011;42597;40.636;0.278;2023-07-16T09:47:17;7.72;;;3.47;;
56718;SDS011;42597;40.636;0.278;2023-07-16T09:49:42;7.68;;;2.83;;
56718;SDS011;42597;40.636;0.278;2023-07-16T09:52:08;7.93;;;4.00;;
56718;SDS011;42597;40.636;0.278;2023-07-16T09:54:34;9.10;;;3.25;;
56718;SDS011;42597;40.636;0.278;2023-07-16T09:57:03;12.50;;;3.40;;
56718;SDS011;42597;40.636;0.278;2023-07-16T09:59:31;12.07;;;3.85;;
56718;SDS011;42597;40.636;0.278;2023-07-16T10:01:58;9.97;;;4.60;;
56718;SDS011;42597;40.636;0.278;2023-07-16T10:04:24;8.40;;;3.90;;
56718;SDS011;42597;40.636;0.278;2023-07-16T10:12:11;9.35;;;3.65;;
56718;SDS011;42597;40.636;0.278;2023-07-16T10:14:42;6.90;;;3.30;;
56718;SDS011;42597;40.636;0.278;2023-07-16T10:17:12;11.35;;;3.35;;
56718;SDS011;42597;40.636;0.278;2023-07-16T10:20:12;14.60;;;3.70;;
56718;SDS011;42597;40.636;0.278;2023-07-16T10:25:03;6.45;;;3.15;;
56718;SDS011;42597;40.636;0.278;2023-07-16T10:27:34;9.55;;;4.03;;
56718;SDS011;42597;40.636;0.278;2023-07-16T10:30:00;6.82;;;3.10;;
56718;SDS011;42597;40.636;0.278;2023-07-16T10:32:31;6.10;;;2.85;;
56718;SDS011;42597;40.636;0.278;2023-07-16T10:34:57;7.95;;;3.40;;
56718;SDS011;42597;40.636;0.278;2023-07-16T10:37:24;7.07;;;3.63;;
56718;SDS011;42597;40.636;0.278;2023-07-16T10:39:51;12.35;;;4.57;;
56718;SDS011;42597;40.636;0.278;2023-07-16T10:42:22;9.00;;;4.18;;
56718;SDS011;42597;40.636;0.278;2023-07-16T10:44:49;14.80;;;4.85;;
56718;SDS011;42597;40.636;0.278;2023-07-16T10:47:18;11.02;;;3.72;;
56718;SDS011;42597;40.636;0.278;2023-07-16T10:49:55;10.30;;;3.90;;
56718;SDS011;42597;40.636;0.278;2023-07-16T10:52:21;14.60;;;4.97;;
56718;SDS011;42597;40.636;0.278;2023-07-16T10:54:48;14.65;;;4.47;;
56718;SDS011;42597;40.636;0.278;2023-07-16T10:57:22;12.73;;;4.68;;
56718;SDS011;42597;40.636;0.278;2023-07-16T10:59:50;13.85;;;5.15;;
56718;SDS011;42597;40.636;0.278;2023-07-16T11:02:16;17.58;;;5.88;;
56718;SDS011;42597;40.636;0.278;2023-07-16T11:04:43;13.82;;;4.80;;
56718;SDS011;42597;40.636;0.278;2023-07-16T11:07:10;15.60;;;5.28;;
56718;SDS011;42597;40.636;0.278;2023-07-16T11:09:40;27.52;;;5.43;;
56718;SDS011;42597;40.636;0.278;2023-07-16T11:12:14;8.23;;;5.03;;
56718;SDS011;42597;40.636;0.278;2023-07-16T11:14:44;18.63;;;5.72;;
56718;SDS011;42597;40.636;0.278;2023-07-16T11:17:14;12.55;;;4.80;;
56718;SDS011;42597;40.636;0.278;2023-07-16T11:19:41;12.73;;;5.15;;
56718;SDS011;42597;40.636;0.278;2023-07-16T11:22:10;16.77;;;4.60;;
56718;SDS011;42597;40.636;0.278;2023-07-16T11:24:39;13.95;;;5.47;;
56718;SDS011;42597;40.636;0.278;2023-07-16T11:27:13;11.05;;;5.38;;
56718;SDS011;42597;40.636;0.278;2023-07-16T11:29:40;22.00;;;4.82;;
56718;SDS011;42597;40.636;0.278;2023-07-16T11:32:10;9.70;;;4.47;;
56718;SDS011;42597;40.636;0.278;2023-07-16T11:34:35;10.02;;;4.68;;
56718;SDS011;42597;40.636;0.278;2023-07-16T11:37:07;8.60;;;4.70;;
56718;SDS011;42597;40.636;0.278;2023-07-16T11:39:34;15.35;;;4.78;;
56718;SDS011;42597;40.636;0.278;2023-07-16T11:42:00;14.80;;;5.05;;
56718;SDS011;42597;40.636;0.278;2023-07-16T11:44:32;12.98;;;6.18;;
56718;SDS011;42597;40.636;0.278;2023-07-16T11:46:58;15.57;;;4.85;;
56718;SDS011;42597;40.636;0.278;2023-07-16T11:49:24;11.18;;;4.40;;
56718;SDS011;42597;40.636;0.278;2023-07-16T11:51:49;22.25;;;4.72;;
56718;SDS011;42597;40.636;0.278;2023-07-16T11:54:15;9.07;;;3.72;;
56718;SDS011;42597;40.636;0.278;2023-07-16T11:56:40;13.05;;;3.83;;
56718;SDS011;42597;40.636;0.278;2023-07-16T11:59:06;13.77;;;3.53;;
56718;SDS011;42597;40.636;0.278;2023-07-16T12:01:31;9.00;;;4.07;;
56718;SDS011;42597;40.636;0.278;2023-07-16T12:03:57;9.27;;;3.95;;
56718;SDS011;42597;40.636;0.278;2023-07-16T12:06:23;13.32;;;4.20;;
56718;SDS011;42597;40.636;0.278;2023-07-16T12:08:48;11.30;;;4.68;;
56718;SDS011;42597;40.636;0.278;2023-07-16T12:11:14;7.15;;;3.53;;
56718;SDS011;42597;40.636;0.278;2023-07-16T12:13:39;11.68;;;4.63;;
56718;SDS011;42597;40.636;0.278;2023-07-16T12:16:05;17.27;;;4.72;;
56718;SDS011;42597;40.636;0.278;2023-07-16T12:18:31;12.90;;;4.32;;
56718;SDS011;42597;40.636;0.278;2023-07-16T12:20:56;12.57;;;4.22;;
56718;SDS011;42597;40.636;0.278;2023-07-16T12:23:22;12.60;;;4.45;;
56718;SDS011;42597;40.636;0.278;2023-07-16T12:25:48;18.25;;;5.10;;
56718;SDS011;42597;40.636;0.278;2023-07-16T12:28:15;11.25;;;4.93;;
56718;SDS011;42597;40.636;0.278;2023-07-16T12:30:40;9.95;;;5.03;;
56718;SDS011;42597;40.636;0.278;2023-07-16T12:33:06;8.63;;;4.40;;
56718;SDS011;42597;40.636;0.278;2023-07-16T12:35:31;19.88;;;5.25;;
56718;SDS011;42597;40.636;0.278;2023-07-16T12:37:57;15.35;;;5.10;;
56718;SDS011;42597;40.636;0.278;2023-07-16T12:40:23;8.48;;;3.80;;
56718;SDS011;42597;40.636;0.278;2023-07-16T12:42:49;11.68;;;4.35;;
56718;SDS011;42597;40.636;0.278;2023-07-16T12:45:15;17.15;;;4.97;;
56718;SDS011;42597;40.636;0.278;2023-07-16T12:47:40;13.35;;;4.25;;
56718;SDS011;42597;40.636;0.278;2023-07-16T12:50:07;26.08;;;5.10;;
56718;SDS011;42597;40.636;0.278;2023-07-16T12:52:33;16.58;;;5.00;;
56718;SDS011;42597;40.636;0.278;2023-07-16T12:54:58;19.00;;;4.38;;
56718;SDS011;42597;40.636;0.278;2023-07-16T12:57:24;7.63;;;4.50;;
56718;SDS011;42597;40.636;0.278;2023-07-16T12:59:49;11.68;;;4.20;;
56718;SDS011;42597;40.636;0.278;2023-07-16T13:02:15;10.23;;;4.25;;
56718;SDS011;42597;40.636;0.278;2023-07-16T13:04:40;11.80;;;4.88;;
56718;SDS011;42597;40.636;0.278;2023-07-16T13:07:06;19.75;;;4.85;;
56718;SDS011;42597;40.636;0.278;2023-07-16T13:09:31;10.02;;;4.47;;
56718;SDS011;42597;40.636;0.278;2023-07-16T13:11:57;13.43;;;5.45;;
56718;SDS011;42597;40.636;0.278;2023-07-16T13:14:22;13.85;;;5.22;;
56718;SDS011;42597;40.636;0.278;2023-07-16T13:16:48;20.58;;;5.55;;
56718;SDS011;42597;40.636;0.278;2023-07-16T13:19:14;14.68;;;4.85;;
56718;SDS011;42597;40.636;0.278;2023-07-16T13:21:39;15.48;;;5.07;;
56718;SDS011;42597;40.636;0.278;2023-07-16T13:24:05;8.82;;;4.75;;
56718;SDS011;42597;40.636;0.278;2023-07-16T13:26:30;17.02;;;5.90;;
56718;SDS011;42597;40.636;0.278;2023-07-16T13:28:56;14.77;;;5.57;;
56718;SDS011;42597;40.636;0.278;2023-07-16T13:31:22;13.07;;;6.40;;
56718;SDS011;42597;40.636;0.278;2023-07-16T13:33:47;16.38;;;6.18;;
56718;SDS011;42597;40.636;0.278;2023-07-16T13:36:13;17.95;;;5.15;;
56718;SDS011;42597;40.636;0.278;2023-07-16T13:38:38;14.30;;;5.75;;
56718;SDS011;42597;40.636;0.278;2023-07-16T13:41:04;16.92;;;6.28;;
56718;SDS011;42597;40.636;0.278;2023-07-16T13:43:30;15.77;;;5.65;;
56718;SDS011;42597;40.636;0.278;2023-07-16T13:45:55;11.50;;;5.63;;
56718;SDS011;42597;40.636;0.278;2023-07-16T13:48:21;12.68;;;5.70;;
56718;SDS011;42597;40.636;0.278;2023-07-16T13:50:46;15.45;;;4.60;;
56718;SDS011;42597;40.636;0.278;2023-07-16T13:53:12;13.40;;;5.22;;
56718;SDS011;42597;40.636;0.278;2023-07-16T13:55:37;13.60;;;4.95;;
56718;SDS011;42597;40.636;0.278;2023-07-16T13:58:03;15.02;;;5.10;;
56718;SDS011;42597;40.636;0.278;2023-07-16T14:00:29;13.90;;;6.80;;
56718;SDS011;42597;40.636;0.278;2023-07-16T14:02:54;14.38;;;5.20;;
56718;SDS011;42597;40.636;0.278;2023-07-16T14:05:20;12.48;;;5.32;;
56718;SDS011;42597;40.636;0.278;2023-07-16T14:07:46;11.90;;;5.65;;
56718;SDS011;42597;40.636;0.278;2023-07-16T14:10:12;16.17;;;7.43;;
56718;SDS011;42597;40.636;0.278;2023-07-16T14:12:37;13.27;;;5.88;;
56718;SDS011;42597;40.636;0.278;2023-07-16T14:15:03;20.42;;;6.43;;
56718;SDS011;42597;40.636;0.278;2023-07-16T14:17:29;19.65;;;5.97;;
56718;SDS011;42597;40.636;0.278;2023-07-16T14:19:55;14.07;;;5.68;;
56718;SDS011;42597;40.636;0.278;2023-07-16T14:22:20;18.35;;;5.53;;
56718;SDS011;42597;40.636;0.278;2023-07-16T14:27:16;8.60;;;5.18;;
56718;SDS011;42597;40.636;0.278;2023-07-16T14:29:44;12.30;;;5.85;;
56718;SDS011;42597;40.636;0.278;2023-07-16T14:32:10;22.83;;;7.03;;
56718;SDS011;42597;40.636;0.278;2023-07-16T14:34:35;18.58;;;7.30;;
56718;SDS011;42597;40.636;0.278;2023-07-16T14:37:01;16.52;;;6.95;;
56718;SDS011;42597;40.636;0.278;2023-07-16T14:39:27;16.15;;;7.47;;
56718;SDS011;42597;40.636;0.278;2023-07-16T14:41:52;14.10;;;6.47;;
56718;SDS011;42597;40.636;0.278;2023-07-16T14:44:18;18.40;;;6.80;;
56718;SDS011;42597;40.636;0.278;2023-07-16T14:46:43;22.05;;;6.47;;
56718;SDS011;42597;40.636;0.278;2023-07-16T14:49:09;17.25;;;6.55;;
56718;SDS011;42597;40.636;0.278;2023-07-16T14:51:36;12.05;;;6.15;;
56718;SDS011;42597;40.636;0.278;2023-07-16T14:54:07;11.20;;;5.70;;
56718;SDS011;42597;40.636;0.278;2023-07-16T14:56:34;18.10;;;6.25;;
56718;SDS011;42597;40.636;0.278;2023-07-16T14:59:00;13.80;;;7.38;;
56718;SDS011;42597;40.636;0.278;2023-07-16T15:01:25;21.42;;;6.88;;